sensor_id;sensor_type;location;lat;lon;timestamp;P1;durP1;ratioP1;P2;durP2;ratioP2
76752;SDS011;65687;51.308;16.916;2023-02-28T00:04:47;13.90;;;6.90;;
76752;SDS011;65687;51.308;16.916;2023-02-28T00:09:53;13.40;;;6.40;;
76752;SDS011;65687;51.308;16.916;2023-02-28T00:14:54;17.10;;;8.50;;
76752;SDS011;65687;51.308;16.916;2023-02-28T00:19:55;15.70;;;10.50;;
76752;SDS011;65687;51.308;16.916;2023-02-28T00:24:57;14.00;;;8.00;;
76752;SDS011;65687;51.308;16.916;2023-02-28T00:29:58;14.70;;;7.50;;
76752;SDS011;65687;51.308;16.916;2023-02-28T00:34:58;16.40;;;7.70;;
76752;SDS011;65687;51.308;16.916;2023-02-28T00:39:59;14.80;;;6.30;;
76752;SDS011;65687;51.308;16.916;2023-02-28T00:45:00;13.70;;;7.00;;
76752;SDS011;65687;51.308;16.916;2023-02-28T00:50:02;16.60;;;7.60;;
76752;SDS011;65687;51.308;16.916;2023-02-28T00:55:04;10.90;;;5.90;;
76752;SDS011;65687;51.308;16.916;2023-02-28T01:00:05;17.40;;;8.40;;
76752;SDS011;65687;51.308;16.916;2023-02-28T01:05:07;18.70;;;9.30;;
76752;SDS011;65687;51.308;16.916;2023-02-28T01:10:08;19.00;;;8.60;;
76752;SDS011;65687;51.308;16.916;2023-02-28T01:15:10;14.90;;;8.80;;
76752;SDS011;65687;51.308;16.916;2023-02-28T01:20:12;15.90;;;8.40;;
76752;SDS011;65687;51.308;16.916;2023-02-28T01:25:13;18.00;;;7.90;;
76752;SDS011;65687;51.308;16.916;2023-02-28T01:30:14;11.40;;;7.40;;
76752;SDS011;65687;51.308;16.916;2023-02-28T01:35:15;19.50;;;9.60;;
76752;SDS011;65687;51.308;16.916;2023-02-28T01:40:15;21.90;;;9.90;;
76752;SDS011;65687;51.308;16.916;2023-02-28T01:45:29;19.60;;;8.90;;
76752;SDS011;65687;51.308;16.916;2023-02-28T01:50:33;28.20;;;14.30;;
76752;SDS011;65687;51.308;16.916;2023-02-28T01:55:37;25.20;;;13.40;;
76752;SDS011;65687;51.308;16.916;2023-02-28T02:00:40;23.50;;;12.80;;
76752;SDS011;65687;51.308;16.916;2023-02-28T02:05:43;23.70;;;12.50;;
76752;SDS011;65687;51.308;16.916;2023-02-28T02:10:48;26.10;;;12.40;;
76752;SDS011;65687;51.308;16.916;2023-02-28T02:42:16;20.00;;;10.10;;
76752;SDS011;65687;51.308;16.916;2023-02-28T02:47:26;29.10;;;15.00;;
76752;SDS011;65687;51.308;16.916;2023-02-28T02:52:52;26.10;;;15.20;;
76752;SDS011;65687;51.308;16.916;2023-02-28T02:57:58;29.50;;;13.40;;
76752;SDS011;65687;51.308;16.916;2023-02-28T03:03:03;26.50;;;12.70;;
76752;SDS011;65687;51.308;16.916;2023-02-28T03:08:07;26.30;;;14.70;;
76752;SDS011;65687;51.308;16.916;2023-02-28T03:18:24;24.30;;;12.70;;
76752;SDS011;65687;51.308;16.916;2023-02-28T03:23:38;20.00;;;10.80;;
76752;SDS011;65687;51.308;16.916;2023-02-28T03:34:31;17.90;;;8.60;;
76752;SDS011;65687;51.308;16.916;2023-02-28T03:39:20;31.20;;;15.10;;
76752;SDS011;65687;51.308;16.916;2023-02-28T03:44:25;27.60;;;14.60;;
76752;SDS011;65687;51.308;16.916;2023-02-28T03:49:35;24.90;;;13.70;;
76752;SDS011;65687;51.308;16.916;2023-02-28T03:54:45;24.10;;;12.80;;
76752;SDS011;65687;51.308;16.916;2023-02-28T03:59:54;24.10;;;13.50;;
76752;SDS011;65687;51.308;16.916;2023-02-28T04:05:00;16.80;;;9.40;;
76752;SDS011;65687;51.308;16.916;2023-02-28T04:10:01;21.70;;;11.40;;
76752;SDS011;65687;51.308;16.916;2023-02-28T04:15:03;21.90;;;11.60;;
76752;SDS011;65687;51.308;16.916;2023-02-28T04:20:06;16.90;;;8.10;;
76752;SDS011;65687;51.308;16.916;2023-02-28T04:25:10;26.90;;;13.90;;
76752;SDS011;65687;51.308;16.916;2023-02-28T04:30:11;29.20;;;13.30;;
76752;SDS011;65687;51.308;16.916;2023-02-28T04:35:12;29.80;;;13.90;;
76752;SDS011;65687;51.308;16.916;2023-02-28T04:40:13;25.00;;;13.20;;
76752;SDS011;65687;51.308;16.916;2023-02-28T04:45:14;26.20;;;13.10;;
76752;SDS011;65687;51.308;16.916;2023-02-28T04:50:15;22.40;;;12.50;;
76752;SDS011;65687;51.308;16.916;2023-02-28T04:55:16;16.40;;;9.10;;
76752;SDS011;65687;51.308;16.916;2023-02-28T05:00:17;28.70;;;14.50;;
76752;SDS011;65687;51.308;16.916;2023-02-28T05:05:18;34.30;;;16.20;;
76752;SDS011;65687;51.308;16.916;2023-02-28T05:10:19;28.40;;;13.00;;
76752;SDS011;65687;51.308;16.916;2023-02-28T05:15:20;26.20;;;13.20;;
76752;SDS011;65687;51.308;16.916;2023-02-28T05:20:21;25.20;;;12.90;;
76752;SDS011;65687;51.308;16.916;2023-02-28T05:25:22;23.40;;;12.00;;
76752;SDS011;65687;51.308;16.916;2023-02-28T05:30:23;25.70;;;13.20;;
76752;SDS011;65687;51.308;16.916;2023-02-28T05:35:24;20.60;;;10.90;;
76752;SDS011;65687;51.308;16.916;2023-02-28T05:40:25;23.70;;;11.00;;
76752;SDS011;65687;51.308;16.916;2023-02-28T05:45:26;18.70;;;9.30;;
76752;SDS011;65687;51.308;16.916;2023-02-28T05:50:27;29.30;;;16.10;;
76752;SDS011;65687;51.308;16.916;2023-02-28T05:55:28;27.00;;;15.10;;
76752;SDS011;65687;51.308;16.916;2023-02-28T06:00:28;33.60;;;15.70;;
76752;SDS011;65687;51.308;16.916;2023-02-28T06:05:30;28.30;;;13.60;;
76752;SDS011;65687;51.308;16.916;2023-02-28T06:10:30;30.20;;;14.00;;
76752;SDS011;65687;51.308;16.916;2023-02-28T06:15:31;29.30;;;14.10;;
76752;SDS011;65687;51.308;16.916;2023-02-28T06:20:33;28.50;;;13.20;;
76752;SDS011;65687;51.308;16.916;2023-02-28T06:25:34;32.20;;;14.30;;
76752;SDS011;65687;51.308;16.916;2023-02-28T06:30:36;16.70;;;9.40;;
76752;SDS011;65687;51.308;16.916;2023-02-28T06:35:38;36.50;;;16.80;;
76752;SDS011;65687;51.308;16.916;2023-02-28T06:40:39;32.00;;;16.80;;
76752;SDS011;65687;51.308;16.916;2023-02-28T06:45:43;27.90;;;16.30;;
76752;SDS011;65687;51.308;16.916;2023-02-28T06:50:44;28.70;;;15.20;;
76752;SDS011;65687;51.308;16.916;2023-02-28T06:55:45;29.40;;;15.70;;
76752;SDS011;65687;51.308;16.916;2023-02-28T07:00:49;26.70;;;12.90;;
76752;SDS011;65687;51.308;16.916;2023-02-28T07:05:51;25.30;;;11.40;;
76752;SDS011;65687;51.308;16.916;2023-02-28T07:10:55;31.30;;;17.30;;
76752;SDS011;65687;51.308;16.916;2023-02-28T07:16:01;33.70;;;15.70;;
76752;SDS011;65687;51.308;16.916;2023-02-28T07:21:07;35.10;;;16.60;;
76752;SDS011;65687;51.308;16.916;2023-02-28T07:26:11;32.90;;;15.80;;
76752;SDS011;65687;51.308;16.916;2023-02-28T07:31:15;31.30;;;17.80;;
76752;SDS011;65687;51.308;16.916;2023-02-28T07:36:17;35.40;;;16.30;;
76752;SDS011;65687;51.308;16.916;2023-02-28T07:41:22;36.80;;;17.60;;
76752;SDS011;65687;51.308;16.916;2023-02-28T07:46:25;29.50;;;14.70;;
76752;SDS011;65687;51.308;16.916;2023-02-28T07:51:26;33.00;;;17.60;;
76752;SDS011;65687;51.308;16.916;2023-02-28T07:56:27;37.20;;;20.30;;
76752;SDS011;65687;51.308;16.916;2023-02-28T08:01:28;33.20;;;16.40;;
76752;SDS011;65687;51.308;16.916;2023-02-28T08:06:29;37.00;;;20.00;;
76752;SDS011;65687;51.308;16.916;2023-02-28T08:11:30;30.10;;;17.80;;
76752;SDS011;65687;51.308;16.916;2023-02-28T08:16:31;28.30;;;15.70;;
76752;SDS011;65687;51.308;16.916;2023-02-28T08:21:31;23.50;;;12.90;;
76752;SDS011;65687;51.308;16.916;2023-02-28T08:26:33;24.90;;;12.80;;
76752;SDS011;65687;51.308;16.916;2023-02-28T08:31:34;25.80;;;13.80;;
76752;SDS011;65687;51.308;16.916;2023-02-28T08:36:36;22.60;;;11.90;;
76752;SDS011;65687;51.308;16.916;2023-02-28T08:41:37;21.40;;;11.20;;
76752;SDS011;65687;51.308;16.916;2023-02-28T08:46:38;19.40;;;10.40;;
76752;SDS011;65687;51.308;16.916;2023-02-28T08:51:39;18.60;;;8.50;;
76752;SDS011;65687;51.308;16.916;2023-02-28T08:56:40;16.40;;;9.50;;
76752;SDS011;65687;51.308;16.916;2023-02-28T09:01:41;15.10;;;7.20;;
76752;SDS011;65687;51.308;16.916;2023-02-28T09:06:43;12.70;;;6.60;;
76752;SDS011;65687;51.308;16.916;2023-02-28T09:11:45;9.60;;;5.30;;
76752;SDS011;65687;51.308;16.916;2023-02-28T09:16:46;8.10;;;4.00;;
76752;SDS011;65687;51.308;16.916;2023-02-28T09:21:47;6.40;;;4.30;;
76752;SDS011;65687;51.308;16.916;2023-02-28T09:26:48;9.40;;;4.70;;
76752;SDS011;65687;51.308;16.916;2023-02-28T09:31:48;11.40;;;5.90;;
76752;SDS011;65687;51.308;16.916;2023-02-28T09:36:50;9.50;;;5.80;;
76752;SDS011;65687;51.308;16.916;2023-02-28T09:41:55;8.60;;;5.40;;
76752;SDS011;65687;51.308;16.916;2023-02-28T09:46:57;7.40;;;4.30;;
76752;SDS011;65687;51.308;16.916;2023-02-28T09:52:06;6.70;;;4.00;;
76752;SDS011;65687;51.308;16.916;2023-02-28T10:02:40;3.60;;;2.30;;
76752;SDS011;65687;51.308;16.916;2023-02-28T10:12:56;8.70;;;5.00;;
76752;SDS011;65687;51.308;16.916;2023-02-28T10:18:00;5.10;;;3.30;;
76752;SDS011;65687;51.308;16.916;2023-02-28T10:28:21;11.10;;;4.40;;
76752;SDS011;65687;51.308;16.916;2023-02-28T10:33:29;8.60;;;4.90;;
76752;SDS011;65687;51.308;16.916;2023-02-28T10:38:33;7.90;;;4.60;;
76752;SDS011;65687;51.308;16.916;2023-02-28T10:43:36;6.80;;;3.70;;
76752;SDS011;65687;51.308;16.916;2023-02-28T10:48:50;7.00;;;4.20;;
76752;SDS011;65687;51.308;16.916;2023-02-28T10:54:15;9.20;;;5.00;;
76752;SDS011;65687;51.308;16.916;2023-02-28T10:59:29;9.00;;;5.90;;
76752;SDS011;65687;51.308;16.916;2023-02-28T11:04:32;9.10;;;4.80;;
76752;SDS011;65687;51.308;16.916;2023-02-28T11:09:40;8.50;;;5.20;;
76752;SDS011;65687;51.308;16.916;2023-02-28T11:14:52;9.70;;;6.00;;
76752;SDS011;65687;51.308;16.916;2023-02-28T11:20:01;9.50;;;5.80;;
76752;SDS011;65687;51.308;16.916;2023-02-28T11:25:08;9.40;;;5.60;;
76752;SDS011;65687;51.308;16.916;2023-02-28T11:35:51;11.60;;;5.80;;
76752;SDS011;65687;51.308;16.916;2023-02-28T11:51:34;9.20;;;5.80;;
76752;SDS011;65687;51.308;16.916;2023-02-28T11:56:43;10.40;;;6.60;;
76752;SDS011;65687;51.308;16.916;2023-02-28T12:17:56;12.10;;;6.30;;
76752;SDS011;65687;51.308;16.916;2023-02-28T12:28:36;8.60;;;5.20;;
76752;SDS011;65687;51.308;16.916;2023-02-28T12:33:48;10.90;;;6.80;;
76752;SDS011;65687;51.308;16.916;2023-02-28T12:38:54;12.50;;;7.40;;
76752;SDS011;65687;51.308;16.916;2023-02-28T12:44:02;12.40;;;7.50;;
76752;SDS011;65687;51.308;16.916;2023-02-28T12:49:08;11.60;;;7.00;;
76752;SDS011;65687;51.308;16.916;2023-02-28T13:09:56;12.90;;;6.80;;
76752;SDS011;65687;51.308;16.916;2023-02-28T13:15:16;10.90;;;5.10;;
76752;SDS011;65687;51.308;16.916;2023-02-28T13:20:26;11.50;;;6.10;;
76752;SDS011;65687;51.308;16.916;2023-02-28T13:46:30;6.60;;;3.40;;
76752;SDS011;65687;51.308;16.916;2023-02-28T13:51:38;9.00;;;5.00;;
76752;SDS011;65687;51.308;16.916;2023-02-28T14:07:33;7.80;;;4.00;;
76752;SDS011;65687;51.308;16.916;2023-02-28T14:12:57;8.70;;;4.90;;
76752;SDS011;65687;51.308;16.916;2023-02-28T14:18:03;6.70;;;4.00;;
76752;SDS011;65687;51.308;16.916;2023-02-28T14:39:21;10.10;;;5.20;;
76752;SDS011;65687;51.308;16.916;2023-02-28T14:44:25;8.40;;;4.20;;
76752;SDS011;65687;51.308;16.916;2023-02-28T14:49:29;9.60;;;5.10;;
76752;SDS011;65687;51.308;16.916;2023-02-28T14:54:38;8.70;;;5.10;;
76752;SDS011;65687;51.308;16.916;2023-02-28T14:59:40;11.90;;;5.80;;
76752;SDS011;65687;51.308;16.916;2023-02-28T15:04:41;11.00;;;6.20;;
76752;SDS011;65687;51.308;16.916;2023-02-28T15:09:42;9.80;;;5.60;;
76752;SDS011;65687;51.308;16.916;2023-02-28T15:14:44;5.70;;;3.30;;
76752;SDS011;65687;51.308;16.916;2023-02-28T15:19:46;9.10;;;5.10;;
76752;SDS011;65687;51.308;16.916;2023-02-28T15:24:51;9.00;;;6.00;;
76752;SDS011;65687;51.308;16.916;2023-02-28T15:29:54;9.60;;;6.10;;
76752;SDS011;65687;51.308;16.916;2023-02-28T15:34:58;10.30;;;5.80;;
76752;SDS011;65687;51.308;16.916;2023-02-28T15:40:23;11.40;;;6.90;;
76752;SDS011;65687;51.308;16.916;2023-02-28T15:45:32;11.10;;;6.80;;
76752;SDS011;65687;51.308;16.916;2023-02-28T15:51:01;9.90;;;6.90;;
76752;SDS011;65687;51.308;16.916;2023-02-28T15:56:29;12.10;;;7.10;;
76752;SDS011;65687;51.308;16.916;2023-02-28T16:02:02;11.50;;;6.70;;
76752;SDS011;65687;51.308;16.916;2023-02-28T16:07:17;11.40;;;7.30;;
76752;SDS011;65687;51.308;16.916;2023-02-28T16:12:18;11.90;;;6.70;;
76752;SDS011;65687;51.308;16.916;2023-02-28T16:17:27;10.50;;;7.40;;
76752;SDS011;65687;51.308;16.916;2023-02-28T16:22:31;13.40;;;8.40;;
76752;SDS011;65687;51.308;16.916;2023-02-28T16:27:33;11.60;;;6.70;;
76752;SDS011;65687;51.308;16.916;2023-02-28T16:32:37;10.80;;;7.00;;
76752;SDS011;65687;51.308;16.916;2023-02-28T16:37:38;13.90;;;6.80;;
76752;SDS011;65687;51.308;16.916;2023-02-28T16:42:39;13.40;;;7.80;;
76752;SDS011;65687;51.308;16.916;2023-02-28T16:47:41;13.10;;;6.70;;
76752;SDS011;65687;51.308;16.916;2023-02-28T16:52:41;12.30;;;6.60;;
76752;SDS011;65687;51.308;16.916;2023-02-28T16:57:43;11.60;;;6.30;;
76752;SDS011;65687;51.308;16.916;2023-02-28T17:02:45;11.40;;;6.70;;
76752;SDS011;65687;51.308;16.916;2023-02-28T17:07:46;13.50;;;6.60;;
76752;SDS011;65687;51.308;16.916;2023-02-28T17:12:48;10.30;;;6.20;;
76752;SDS011;65687;51.308;16.916;2023-02-28T17:17:49;16.60;;;9.30;;
76752;SDS011;65687;51.308;16.916;2023-02-28T17:22:51;15.50;;;9.60;;
76752;SDS011;65687;51.308;16.916;2023-02-28T17:27:52;14.80;;;8.70;;
76752;SDS011;65687;51.308;16.916;2023-02-28T17:32:53;16.00;;;8.90;;
76752;SDS011;65687;51.308;16.916;2023-02-28T17:37:55;12.10;;;7.90;;
76752;SDS011;65687;51.308;16.916;2023-02-28T17:42:56;9.40;;;6.70;;
76752;SDS011;65687;51.308;16.916;2023-02-28T17:47:58;12.40;;;6.90;;
76752;SDS011;65687;51.308;16.916;2023-02-28T17:52:59;11.10;;;7.20;;
76752;SDS011;65687;51.308;16.916;2023-02-28T17:58:00;11.60;;;6.80;;
76752;SDS011;65687;51.308;16.916;2023-02-28T18:03:01;14.70;;;8.10;;
76752;SDS011;65687;51.308;16.916;2023-02-28T18:08:02;22.80;;;12.50;;
76752;SDS011;65687;51.308;16.916;2023-02-28T18:13:03;22.10;;;12.30;;
76752;SDS011;65687;51.308;16.916;2023-02-28T18:18:04;26.00;;;12.60;;
76752;SDS011;65687;51.308;16.916;2023-02-28T18:23:07;23.70;;;13.40;;
76752;SDS011;65687;51.308;16.916;2023-02-28T18:28:07;22.80;;;13.50;;
76752;SDS011;65687;51.308;16.916;2023-02-28T18:33:08;26.20;;;12.10;;
76752;SDS011;65687;51.308;16.916;2023-02-28T18:38:11;27.30;;;12.60;;
76752;SDS011;65687;51.308;16.916;2023-02-28T18:43:14;23.20;;;11.90;;
76752;SDS011;65687;51.308;16.916;2023-02-28T18:48:15;23.10;;;12.20;;
76752;SDS011;65687;51.308;16.916;2023-02-28T18:53:19;20.60;;;9.50;;
76752;SDS011;65687;51.308;16.916;2023-02-28T18:58:19;23.30;;;11.90;;
76752;SDS011;65687;51.308;16.916;2023-02-28T19:03:20;23.60;;;13.10;;
76752;SDS011;65687;51.308;16.916;2023-02-28T19:08:21;26.70;;;13.90;;
76752;SDS011;65687;51.308;16.916;2023-02-28T19:13:22;25.50;;;10.70;;
76752;SDS011;65687;51.308;16.916;2023-02-28T19:18:23;26.20;;;11.00;;
76752;SDS011;65687;51.308;16.916;2023-02-28T19:23:25;25.60;;;12.70;;
76752;SDS011;65687;51.308;16.916;2023-02-28T19:28:27;38.60;;;20.60;;
76752;SDS011;65687;51.308;16.916;2023-02-28T19:33:30;35.80;;;17.80;;
76752;SDS011;65687;51.308;16.916;2023-02-28T19:38:31;34.10;;;16.70;;
76752;SDS011;65687;51.308;16.916;2023-02-28T19:43:32;30.60;;;15.70;;
76752;SDS011;65687;51.308;16.916;2023-02-28T19:48:33;30.10;;;16.30;;
76752;SDS011;65687;51.308;16.916;2023-02-28T19:53:35;30.40;;;16.20;;
76752;SDS011;65687;51.308;16.916;2023-02-28T19:58:37;33.40;;;17.40;;
76752;SDS011;65687;51.308;16.916;2023-02-28T20:03:39;27.60;;;14.00;;
76752;SDS011;65687;51.308;16.916;2023-02-28T20:08:40;37.90;;;18.10;;
76752;SDS011;65687;51.308;16.916;2023-02-28T20:13:42;36.10;;;15.80;;
76752;SDS011;65687;51.308;16.916;2023-02-28T20:18:43;27.00;;;13.70;;
76752;SDS011;65687;51.308;16.916;2023-02-28T20:23:50;26.80;;;12.70;;
76752;SDS011;65687;51.308;16.916;2023-02-28T20:28:51;30.50;;;14.90;;
76752;SDS011;65687;51.308;16.916;2023-02-28T20:33:52;28.50;;;14.80;;
76752;SDS011;65687;51.308;16.916;2023-02-28T20:38:53;40.60;;;19.00;;
76752;SDS011;65687;51.308;16.916;2023-02-28T20:43:55;37.90;;;18.00;;
76752;SDS011;65687;51.308;16.916;2023-02-28T20:49:01;37.80;;;18.30;;
76752;SDS011;65687;51.308;16.916;2023-02-28T20:54:02;35.00;;;17.00;;
76752;SDS011;65687;51.308;16.916;2023-02-28T20:59:03;33.20;;;16.00;;
76752;SDS011;65687;51.308;16.916;2023-02-28T21:04:05;34.10;;;17.70;;
76752;SDS011;65687;51.308;16.916;2023-02-28T21:09:07;30.30;;;15.50;;
76752;SDS011;65687;51.308;16.916;2023-02-28T21:14:11;28.30;;;15.10;;
76752;SDS011;65687;51.308;16.916;2023-02-28T21:19:14;30.90;;;15.20;;
76752;SDS011;65687;51.308;16.916;2023-02-28T21:24:16;28.20;;;13.90;;
76752;SDS011;65687;51.308;16.916;2023-02-28T21:29:19;21.60;;;11.80;;
76752;SDS011;65687;51.308;16.916;2023-02-28T21:34:19;30.20;;;12.20;;
76752;SDS011;65687;51.308;16.916;2023-02-28T21:39:21;34.60;;;17.10;;
76752;SDS011;65687;51.308;16.916;2023-02-28T21:44:31;36.40;;;17.10;;
76752;SDS011;65687;51.308;16.916;2023-02-28T21:49:33;35.70;;;17.30;;
76752;SDS011;65687;51.308;16.916;2023-02-28T21:54:34;41.10;;;21.50;;
76752;SDS011;65687;51.308;16.916;2023-02-28T21:59:35;40.80;;;21.00;;
76752;SDS011;65687;51.308;16.916;2023-02-28T22:04:36;45.40;;;21.70;;
76752;SDS011;65687;51.308;16.916;2023-02-28T22:09:38;40.90;;;18.40;;
76752;SDS011;65687;51.308;16.916;2023-02-28T22:14:38;29.50;;;14.50;;
76752;SDS011;65687;51.308;16.916;2023-02-28T22:19:41;27.60;;;13.90;;
76752;SDS011;65687;51.308;16.916;2023-02-28T22:24:42;31.30;;;14.70;;
76752;SDS011;65687;51.308;16.916;2023-02-28T22:29:43;26.10;;;11.40;;
76752;SDS011;65687;51.308;16.916;2023-02-28T22:34:44;35.00;;;15.40;;
76752;SDS011;65687;51.308;16.916;2023-02-28T22:39:45;30.90;;;12.40;;
76752;SDS011;65687;51.308;16.916;2023-02-28T22:44:45;41.60;;;20.70;;
76752;SDS011;65687;51.308;16.916;2023-02-28T22:49:49;44.20;;;19.90;;
76752;SDS011;65687;51.308;16.916;2023-02-28T22:54:50;40.60;;;19.30;;
76752;SDS011;65687;51.308;16.916;2023-02-28T22:59:52;42.60;;;17.70;;
76752;SDS011;65687;51.308;16.916;2023-02-28T23:04:53;41.90;;;18.80;;
76752;SDS011;65687;51.308;16.916;2023-02-28T23:09:55;42.80;;;17.30;;
76752;SDS011;65687;51.308;16.916;2023-02-28T23:14:55;36.30;;;15.60;;
76752;SDS011;65687;51.308;16.916;2023-02-28T23:19:56;33.30;;;15.30;;
76752;SDS011;65687;51.308;16.916;2023-02-28T23:24:57;33.00;;;15.60;;
76752;SDS011;65687;51.308;16.916;2023-02-28T23:29:58;23.90;;;10.30;;
76752;SDS011;65687;51.308;16.916;2023-02-28T23:34:59;32.60;;;13.00;;
76752;SDS011;65687;51.308;16.916;2023-02-28T23:40:00;25.10;;;10.90;;
76752;SDS011;65687;51.308;16.916;2023-02-28T23:45:01;41.70;;;20.90;;
76752;SDS011;65687;51.308;16.916;2023-02-28T23:50:02;41.10;;;21.20;;
76752;SDS011;65687;51.308;16.916;2023-02-28T23:55:04;42.20;;;20.70;;
